sensor_id;sensor_type;location;lat;lon;timestamp;temperature;humidity
6052;DHT22;3054;51.204;4.430;2022-08-25T00:01:24;27.08;61.22
6052;DHT22;3054;51.204;4.430;2022-08-25T00:03:51;27.05;61.32
6052;DHT22;3054;51.204;4.430;2022-08-25T00:06:18;27.02;61.35
6052;DHT22;3054;51.204;4.430;2022-08-25T00:08:45;27.01;61.43
6052;DHT22;3054;51.204;4.430;2022-08-25T00:11:16;27.00;61.45
6052;DHT22;3054;51.204;4.430;2022-08-25T00:13:47;26.99;61.51
6052;DHT22;3054;51.204;4.430;2022-08-25T00:16:16;26.96;61.60
6052;DHT22;3054;51.204;4.430;2022-08-25T00:18:46;26.94;61.64
6052;DHT22;3054;51.204;4.430;2022-08-25T00:21:14;26.90;61.76
6052;DHT22;3054;51.204;4.430;2022-08-25T00:23:41;26.86;61.84
6052;DHT22;3054;51.204;4.430;2022-08-25T00:26:10;26.86;61.89
6052;DHT22;3054;51.204;4.430;2022-08-25T00:28:39;26.84;61.99
6052;DHT22;3054;51.204;4.430;2022-08-25T00:31:10;26.80;62.06
6052;DHT22;3054;51.204;4.430;2022-08-25T00:33:37;26.78;62.13
6052;DHT22;3054;51.204;4.430;2022-08-25T00:36:04;26.73;62.23
6052;DHT22;3054;51.204;4.430;2022-08-25T00:38:31;26.72;62.31
6052;DHT22;3054;51.204;4.430;2022-08-25T00:40:58;26.69;62.38
6052;DHT22;3054;51.204;4.430;2022-08-25T00:43:45;26.72;62.39
6052;DHT22;3054;51.204;4.430;2022-08-25T00:46:18;26.69;62.43
6052;DHT22;3054;51.204;4.430;2022-08-25T00:48:53;26.64;62.53
6052;DHT22;3054;51.204;4.430;2022-08-25T00:51:28;26.62;62.64
6052;DHT22;3054;51.204;4.430;2022-08-25T00:53:55;26.60;62.69
6052;DHT22;3054;51.204;4.430;2022-08-25T00:56:23;26.57;62.74
6052;DHT22;3054;51.204;4.430;2022-08-25T00:58:55;26.57;62.76
6052;DHT22;3054;51.204;4.430;2022-08-25T01:01:22;26.55;62.80
6052;DHT22;3054;51.204;4.430;2022-08-25T01:03:49;26.53;62.92
6052;DHT22;3054;51.204;4.430;2022-08-25T01:06:16;26.50;62.95
6052;DHT22;3054;51.204;4.430;2022-08-25T01:08:44;26.46;63.15
6052;DHT22;3054;51.204;4.430;2022-08-25T01:11:11;26.43;63.21
6052;DHT22;3054;51.204;4.430;2022-08-25T01:13:42;26.42;63.31
6052;DHT22;3054;51.204;4.430;2022-08-25T01:16:13;26.41;63.35
6052;DHT22;3054;51.204;4.430;2022-08-25T01:18:48;26.38;63.42
6052;DHT22;3054;51.204;4.430;2022-08-25T01:21:18;26.36;63.53
6052;DHT22;3054;51.204;4.430;2022-08-25T01:23:46;26.32;63.62
6052;DHT22;3054;51.204;4.430;2022-08-25T01:26:16;26.27;63.76
6052;DHT22;3054;51.204;4.430;2022-08-25T01:28:45;26.24;63.88
6052;DHT22;3054;51.204;4.430;2022-08-25T01:31:44;26.19;64.04
6052;DHT22;3054;51.204;4.430;2022-08-25T01:34:11;26.17;64.13
6052;DHT22;3054;51.204;4.430;2022-08-25T01:36:44;26.16;64.27
6052;DHT22;3054;51.204;4.430;2022-08-25T01:39:11;26.13;64.33
6052;DHT22;3054;51.204;4.430;2022-08-25T01:41:48;26.09;64.40
6052;DHT22;3054;51.204;4.430;2022-08-25T01:44:17;26.04;64.53
6052;DHT22;3054;51.204;4.430;2022-08-25T01:46:44;26.02;64.60
6052;DHT22;3054;51.204;4.430;2022-08-25T01:49:11;25.98;64.63
6052;DHT22;3054;51.204;4.430;2022-08-25T01:51:42;25.93;64.81
6052;DHT22;3054;51.204;4.430;2022-08-25T01:54:09;25.91;64.89
6052;DHT22;3054;51.204;4.430;2022-08-25T01:56:36;25.86;65.06
6052;DHT22;3054;51.204;4.430;2022-08-25T01:59:03;25.82;65.19
6052;DHT22;3054;51.204;4.430;2022-08-25T02:01:30;25.79;65.30
6052;DHT22;3054;51.204;4.430;2022-08-25T02:03:57;25.76;65.47
6052;DHT22;3054;51.204;4.430;2022-08-25T02:06:25;25.74;65.57
6052;DHT22;3054;51.204;4.430;2022-08-25T02:08:57;25.74;65.62
6052;DHT22;3054;51.204;4.430;2022-08-25T02:11:26;25.73;65.63
6052;DHT22;3054;51.204;4.430;2022-08-25T02:13:57;25.74;65.67
6052;DHT22;3054;51.204;4.430;2022-08-25T02:16:28;25.72;65.76
6052;DHT22;3054;51.204;4.430;2022-08-25T02:18:55;25.73;65.72
6052;DHT22;3054;51.204;4.430;2022-08-25T02:21:23;25.68;65.79
6052;DHT22;3054;51.204;4.430;2022-08-25T02:23:49;25.67;65.84
6052;DHT22;3054;51.204;4.430;2022-08-25T02:26:18;25.64;65.95
6052;DHT22;3054;51.204;4.430;2022-08-25T02:28:46;25.61;65.94
6052;DHT22;3054;51.204;4.430;2022-08-25T02:31:14;25.57;66.03
6052;DHT22;3054;51.204;4.430;2022-08-25T02:33:41;25.54;66.02
6052;DHT22;3054;51.204;4.430;2022-08-25T02:36:08;25.50;66.11
6052;DHT22;3054;51.204;4.430;2022-08-25T02:38:36;25.51;66.11
6052;DHT22;3054;51.204;4.430;2022-08-25T02:41:08;25.50;66.09
6052;DHT22;3054;51.204;4.430;2022-08-25T02:43:39;25.51;66.07
6052;DHT22;3054;51.204;4.430;2022-08-25T02:46:06;25.49;66.06
6052;DHT22;3054;51.204;4.430;2022-08-25T02:48:33;25.46;66.12
6052;DHT22;3054;51.204;4.430;2022-08-25T02:51:01;25.42;66.22
6052;DHT22;3054;51.204;4.430;2022-08-25T02:53:28;25.38;66.35
6052;DHT22;3054;51.204;4.430;2022-08-25T02:55:56;25.37;66.39
6052;DHT22;3054;51.204;4.430;2022-08-25T02:58:23;25.34;66.45
6052;DHT22;3054;51.204;4.430;2022-08-25T03:00:51;25.30;66.42
6052;DHT22;3054;51.204;4.430;2022-08-25T03:03:19;25.31;66.36
6052;DHT22;3054;51.204;4.430;2022-08-25T03:05:46;25.29;66.31
6052;DHT22;3054;51.204;4.430;2022-08-25T03:08:14;25.22;66.36
6052;DHT22;3054;51.204;4.430;2022-08-25T03:10:41;25.16;66.39
6052;DHT22;3054;51.204;4.430;2022-08-25T03:13:08;25.10;66.40
6052;DHT22;3054;51.204;4.430;2022-08-25T03:15:35;25.03;66.47
6052;DHT22;3054;51.204;4.430;2022-08-25T03:18:04;25.00;66.40
6052;DHT22;3054;51.204;4.430;2022-08-25T03:20:31;24.97;66.38
6052;DHT22;3054;51.204;4.430;2022-08-25T03:23:00;24.92;66.37
6052;DHT22;3054;51.204;4.430;2022-08-25T03:25:27;24.88;66.28
6052;DHT22;3054;51.204;4.430;2022-08-25T03:28:12;24.84;66.27
6052;DHT22;3054;51.204;4.430;2022-08-25T03:30:39;24.79;66.17
6052;DHT22;3054;51.204;4.430;2022-08-25T03:33:10;24.75;66.11
6052;DHT22;3054;51.204;4.430;2022-08-25T03:35:37;24.74;66.07
6052;DHT22;3054;51.204;4.430;2022-08-25T03:38:04;24.69;66.03
6052;DHT22;3054;51.204;4.430;2022-08-25T03:40:30;24.65;65.88
6052;DHT22;3054;51.204;4.430;2022-08-25T03:42:57;24.60;65.83
6052;DHT22;3054;51.204;4.430;2022-08-25T03:45:24;24.56;65.72
6052;DHT22;3054;51.204;4.430;2022-08-25T03:47:52;24.55;65.62
6052;DHT22;3054;51.204;4.430;2022-08-25T03:50:21;24.49;65.52
6052;DHT22;3054;51.204;4.430;2022-08-25T03:52:50;24.51;65.41
6052;DHT22;3054;51.204;4.430;2022-08-25T03:55:18;24.49;65.24
6052;DHT22;3054;51.204;4.430;2022-08-25T03:57:45;24.46;65.13
6052;DHT22;3054;51.204;4.430;2022-08-25T04:00:12;24.42;65.01
6052;DHT22;3054;51.204;4.430;2022-08-25T04:02:40;24.36;64.89
6052;DHT22;3054;51.204;4.430;2022-08-25T04:05:08;24.33;64.78
6052;DHT22;3054;51.204;4.430;2022-08-25T04:07:36;24.32;64.54
6052;DHT22;3054;51.204;4.430;2022-08-25T04:10:04;24.28;64.52
6052;DHT22;3054;51.204;4.430;2022-08-25T04:12:31;24.28;64.37
6052;DHT22;3054;51.204;4.430;2022-08-25T04:14:58;24.25;64.24
6052;DHT22;3054;51.204;4.430;2022-08-25T04:17:25;24.20;64.11
6052;DHT22;3054;51.204;4.430;2022-08-25T04:19:55;24.17;63.98
6052;DHT22;3054;51.204;4.430;2022-08-25T04:22:23;24.20;63.75
6052;DHT22;3054;51.204;4.430;2022-08-25T04:24:51;24.19;63.55
6052;DHT22;3054;51.204;4.430;2022-08-25T04:27:19;24.17;63.44
6052;DHT22;3054;51.204;4.430;2022-08-25T04:29:46;24.15;63.31
6052;DHT22;3054;51.204;4.430;2022-08-25T04:32:13;24.12;63.15
6052;DHT22;3054;51.204;4.430;2022-08-25T04:34:40;24.13;62.97
6052;DHT22;3054;51.204;4.430;2022-08-25T04:37:11;24.15;62.76
6052;DHT22;3054;51.204;4.430;2022-08-25T04:39:38;24.17;62.50
6052;DHT22;3054;51.204;4.430;2022-08-25T04:42:06;24.18;62.24
6052;DHT22;3054;51.204;4.430;2022-08-25T04:44:33;24.20;62.03
6052;DHT22;3054;51.204;4.430;2022-08-25T04:47:00;24.23;61.81
6052;DHT22;3054;51.204;4.430;2022-08-25T04:49:28;24.23;61.51
6052;DHT22;3054;51.204;4.430;2022-08-25T04:51:54;24.23;61.34
6052;DHT22;3054;51.204;4.430;2022-08-25T04:54:25;24.23;61.11
6052;DHT22;3054;51.204;4.430;2022-08-25T04:56:53;24.24;60.88
6052;DHT22;3054;51.204;4.430;2022-08-25T04:59:22;24.24;60.67
6052;DHT22;3054;51.204;4.430;2022-08-25T05:01:49;24.25;60.53
6052;DHT22;3054;51.204;4.430;2022-08-25T05:04:16;24.26;60.34
6052;DHT22;3054;51.204;4.430;2022-08-25T05:06:45;24.28;60.15
6052;DHT22;3054;51.204;4.430;2022-08-25T05:09:12;24.27;59.96
6052;DHT22;3054;51.204;4.430;2022-08-25T05:11:39;24.28;59.84
6052;DHT22;3054;51.204;4.430;2022-08-25T05:14:06;24.27;59.67
6052;DHT22;3054;51.204;4.430;2022-08-25T05:16:38;24.29;59.51
6052;DHT22;3054;51.204;4.430;2022-08-25T05:19:04;24.34;59.30
6052;DHT22;3054;51.204;4.430;2022-08-25T05:21:31;24.34;59.17
6052;DHT22;3054;51.204;4.430;2022-08-25T05:24:00;24.36;58.98
6052;DHT22;3054;51.204;4.430;2022-08-25T05:26:29;24.39;58.75
6052;DHT22;3054;51.204;4.430;2022-08-25T05:28:58;24.44;58.60
6052;DHT22;3054;51.204;4.430;2022-08-25T05:31:27;24.48;58.34
6052;DHT22;3054;51.204;4.430;2022-08-25T05:33:56;24.53;58.20
6052;DHT22;3054;51.204;4.430;2022-08-25T05:36:25;24.62;57.90
6052;DHT22;3054;51.204;4.430;2022-08-25T05:38:53;24.62;57.69
6052;DHT22;3054;51.204;4.430;2022-08-25T05:41:24;24.66;57.45
6052;DHT22;3054;51.204;4.430;2022-08-25T05:43:50;24.69;57.29
6052;DHT22;3054;51.204;4.430;2022-08-25T05:46:19;24.75;57.06
6052;DHT22;3054;51.204;4.430;2022-08-25T05:48:47;24.83;56.79
6052;DHT22;3054;51.204;4.430;2022-08-25T05:51:15;24.86;56.48
6052;DHT22;3054;51.204;4.430;2022-08-25T05:53:44;24.91;56.34
6052;DHT22;3054;51.204;4.430;2022-08-25T05:56:12;25.00;56.09
6052;DHT22;3054;51.204;4.430;2022-08-25T05:58:40;25.10;55.80
6052;DHT22;3054;51.204;4.430;2022-08-25T06:01:08;25.21;55.57
6052;DHT22;3054;51.204;4.430;2022-08-25T06:03:53;25.33;55.29
6052;DHT22;3054;51.204;4.430;2022-08-25T06:06:23;25.43;55.02
6052;DHT22;3054;51.204;4.430;2022-08-25T06:09:00;25.50;54.84
6052;DHT22;3054;51.204;4.430;2022-08-25T06:11:29;25.53;54.74
6052;DHT22;3054;51.204;4.430;2022-08-25T06:13:56;25.57;54.52
6052;DHT22;3054;51.204;4.430;2022-08-25T06:16:23;25.57;54.49
6052;DHT22;3054;51.204;4.430;2022-08-25T06:18:49;25.57;54.42
6052;DHT22;3054;51.204;4.430;2022-08-25T06:21:16;25.51;54.47
6052;DHT22;3054;51.204;4.430;2022-08-25T06:23:45;25.43;54.50
6052;DHT22;3054;51.204;4.430;2022-08-25T06:26:14;25.36;54.58
6052;DHT22;3054;51.204;4.430;2022-08-25T06:28:40;25.30;54.62
6052;DHT22;3054;51.204;4.430;2022-08-25T06:31:08;25.29;54.58
6052;DHT22;3054;51.204;4.430;2022-08-25T06:33:35;25.34;54.43
6052;DHT22;3054;51.204;4.430;2022-08-25T06:36:02;25.40;54.20
6052;DHT22;3054;51.204;4.430;2022-08-25T06:38:29;25.53;53.91
6052;DHT22;3054;51.204;4.430;2022-08-25T06:40:59;25.72;53.47
6052;DHT22;3054;51.204;4.430;2022-08-25T06:43:26;25.86;53.19
6052;DHT22;3054;51.204;4.430;2022-08-25T06:45:53;26.03;52.85
6052;DHT22;3054;51.204;4.430;2022-08-25T06:48:20;26.18;52.60
6052;DHT22;3054;51.204;4.430;2022-08-25T06:50:48;26.34;52.30
6052;DHT22;3054;51.204;4.430;2022-08-25T06:53:15;26.48;52.04
6052;DHT22;3054;51.204;4.430;2022-08-25T06:55:42;26.68;51.80
6052;DHT22;3054;51.204;4.430;2022-08-25T06:58:10;26.89;51.41
6052;DHT22;3054;51.204;4.430;2022-08-25T07:00:37;27.02;51.11
6052;DHT22;3054;51.204;4.430;2022-08-25T07:03:04;27.22;50.79
6052;DHT22;3054;51.204;4.430;2022-08-25T07:05:31;27.31;50.47
6052;DHT22;3054;51.204;4.430;2022-08-25T07:07:58;27.32;50.38
6052;DHT22;3054;51.204;4.430;2022-08-25T07:10:25;27.32;50.28
6052;DHT22;3054;51.204;4.430;2022-08-25T07:12:52;27.35;50.33
6052;DHT22;3054;51.204;4.430;2022-08-25T07:15:20;27.40;50.12
6052;DHT22;3054;51.204;4.430;2022-08-25T07:17:48;27.56;49.84
6052;DHT22;3054;51.204;4.430;2022-08-25T07:20:16;27.66;49.56
6052;DHT22;3054;51.204;4.430;2022-08-25T07:22:43;27.72;49.38
6052;DHT22;3054;51.204;4.430;2022-08-25T07:25:09;27.81;49.30
6052;DHT22;3054;51.204;4.430;2022-08-25T07:27:37;27.88;49.06
6052;DHT22;3054;51.204;4.430;2022-08-25T07:30:06;27.87;48.88
6052;DHT22;3054;51.204;4.430;2022-08-25T07:32:35;27.74;49.01
6052;DHT22;3054;51.204;4.430;2022-08-25T07:35:02;27.75;48.99
6052;DHT22;3054;51.204;4.430;2022-08-25T07:37:40;27.74;49.00
6052;DHT22;3054;51.204;4.430;2022-08-25T07:40:09;27.86;48.87
6052;DHT22;3054;51.204;4.430;2022-08-25T07:42:36;27.89;48.77
6052;DHT22;3054;51.204;4.430;2022-08-25T07:45:05;27.98;48.62
6052;DHT22;3054;51.204;4.430;2022-08-25T07:47:31;27.99;48.63
6052;DHT22;3054;51.204;4.430;2022-08-25T07:50:00;28.03;48.59
6052;DHT22;3054;51.204;4.430;2022-08-25T07:52:27;28.06;48.58
6052;DHT22;3054;51.204;4.430;2022-08-25T07:54:54;28.11;48.53
6052;DHT22;3054;51.204;4.430;2022-08-25T07:57:21;28.25;48.34
6052;DHT22;3054;51.204;4.430;2022-08-25T07:59:50;28.32;48.13
6052;DHT22;3054;51.204;4.430;2022-08-25T08:02:18;28.33;48.12
6052;DHT22;3054;51.204;4.430;2022-08-25T08:04:45;28.34;48.01
6052;DHT22;3054;51.204;4.430;2022-08-25T08:07:16;28.50;47.86
6052;DHT22;3054;51.204;4.430;2022-08-25T08:09:44;28.74;47.45
6052;DHT22;3054;51.204;4.430;2022-08-25T08:12:10;28.97;47.01
6052;DHT22;3054;51.204;4.430;2022-08-25T08:14:37;29.09;46.59
6052;DHT22;3054;51.204;4.430;2022-08-25T08:17:05;29.23;46.26
6052;DHT22;3054;51.204;4.430;2022-08-25T08:19:33;29.42;45.77
6052;DHT22;3054;51.204;4.430;2022-08-25T08:22:00;29.43;45.70
6052;DHT22;3054;51.204;4.430;2022-08-25T08:24:29;29.41;45.63
6052;DHT22;3054;51.204;4.430;2022-08-25T08:27:03;29.47;45.54
6052;DHT22;3054;51.204;4.430;2022-08-25T08:29:30;29.51;45.42
6052;DHT22;3054;51.204;4.430;2022-08-25T08:31:58;29.61;45.24
6052;DHT22;3054;51.204;4.430;2022-08-25T08:34:25;29.77;44.93
6052;DHT22;3054;51.204;4.430;2022-08-25T08:36:52;30.01;44.55
6052;DHT22;3054;51.204;4.430;2022-08-25T08:39:19;30.13;44.25
6052;DHT22;3054;51.204;4.430;2022-08-25T08:41:56;30.70;43.22
6052;DHT22;3054;51.204;4.430;2022-08-25T08:45:15;31.35;42.33
6052;DHT22;3054;51.204;4.430;2022-08-25T08:48:12;31.92;41.26
6052;DHT22;3054;51.204;4.430;2022-08-25T08:50:49;32.42;40.46
6052;DHT22;3054;51.204;4.430;2022-08-25T08:53:26;33.51;38.40
6052;DHT22;3054;51.204;4.430;2022-08-25T08:55:57;34.81;36.71
6052;DHT22;3054;51.204;4.430;2022-08-25T08:58:41;36.12;35.13
6052;DHT22;3054;51.204;4.430;2022-08-25T09:01:15;37.55;33.17
6052;DHT22;3054;51.204;4.430;2022-08-25T09:03:48;38.80;31.67
6052;DHT22;3054;51.204;4.430;2022-08-25T09:06:21;40.19;30.13
6052;DHT22;3054;51.204;4.430;2022-08-25T09:08:51;41.58;28.20
6052;DHT22;3054;51.204;4.430;2022-08-25T09:11:25;42.80;26.94
6052;DHT22;3054;51.204;4.430;2022-08-25T09:14:07;44.23;25.49
6052;DHT22;3054;51.204;4.430;2022-08-25T09:16:42;45.71;24.11
6052;DHT22;3054;51.204;4.430;2022-08-25T09:19:46;47.21;22.76
6052;DHT22;3054;51.204;4.430;2022-08-25T09:22:30;48.07;21.66
6052;DHT22;3054;51.204;4.430;2022-08-25T09:25:06;48.40;21.22
6052;DHT22;3054;51.204;4.430;2022-08-25T09:27:40;49.04;20.34
6052;DHT22;3054;51.204;4.430;2022-08-25T09:30:15;49.88;19.54
6052;DHT22;3054;51.204;4.430;2022-08-25T09:32:47;50.84;18.64
6052;DHT22;3054;51.204;4.430;2022-08-25T09:35:18;51.25;17.84
6052;DHT22;3054;51.204;4.430;2022-08-25T09:37:55;51.58;17.30
6052;DHT22;3054;51.204;4.430;2022-08-25T09:40:24;51.79;16.93
6052;DHT22;3054;51.204;4.430;2022-08-25T09:42:55;52.78;16.18
6052;DHT22;3054;51.204;4.430;2022-08-25T09:45:36;53.41;15.58
6052;DHT22;3054;51.204;4.430;2022-08-25T09:48:19;54.06;15.09
6052;DHT22;3054;51.204;4.430;2022-08-25T09:50:47;54.38;14.59
6052;DHT22;3054;51.204;4.430;2022-08-25T09:53:15;54.59;14.25
6052;DHT22;3054;51.204;4.430;2022-08-25T09:55:43;55.15;13.93
6052;DHT22;3054;51.204;4.430;2022-08-25T09:58:16;55.10;13.59
6052;DHT22;3054;51.204;4.430;2022-08-25T10:01:04;55.23;13.39
6052;DHT22;3054;51.204;4.430;2022-08-25T10:03:31;55.76;13.06
6052;DHT22;3054;51.204;4.430;2022-08-25T10:06:03;56.40;12.68
6052;DHT22;3054;51.204;4.430;2022-08-25T10:08:34;56.69;12.26
6052;DHT22;3054;51.204;4.430;2022-08-25T10:11:04;57.17;11.97
6052;DHT22;3054;51.204;4.430;2022-08-25T10:13:39;57.64;11.87
6052;DHT22;3054;51.204;4.430;2022-08-25T10:16:11;58.19;11.56
6052;DHT22;3054;51.204;4.430;2022-08-25T10:18:41;58.78;11.19
6052;DHT22;3054;51.204;4.430;2022-08-25T10:21:14;59.16;10.27
6052;DHT22;3054;51.204;4.430;2022-08-25T10:23:45;59.44;10.55
6052;DHT22;3054;51.204;4.430;2022-08-25T10:26:25;59.15;10.33
6052;DHT22;3054;51.204;4.430;2022-08-25T10:29:02;58.88;10.60
6052;DHT22;3054;51.204;4.430;2022-08-25T10:31:35;59.59;10.08
6052;DHT22;3054;51.204;4.430;2022-08-25T10:34:13;59.76;9.59
6052;DHT22;3054;51.204;4.430;2022-08-25T10:36:48;58.13;9.41
6052;DHT22;3054;51.204;4.430;2022-08-25T10:39:29;55.98;9.68
6052;DHT22;3054;51.204;4.430;2022-08-25T10:42:12;53.93;10.41
6052;DHT22;3054;51.204;4.430;2022-08-25T10:44:47;51.81;11.46
6052;DHT22;3054;51.204;4.430;2022-08-25T10:48:00;49.90;12.61
6052;DHT22;3054;51.204;4.430;2022-08-25T10:50:37;48.90;13.29
6052;DHT22;3054;51.204;4.430;2022-08-25T10:53:17;48.29;13.58
6052;DHT22;3054;51.204;4.430;2022-08-25T10:56:03;47.55;14.05
6052;DHT22;3054;51.204;4.430;2022-08-25T10:58:50;46.51;14.55
6052;DHT22;3054;51.204;4.430;2022-08-25T11:01:30;45.87;14.91
6052;DHT22;3054;51.204;4.430;2022-08-25T11:04:02;45.46;15.16
6052;DHT22;3054;51.204;4.430;2022-08-25T11:06:38;44.91;15.48
6052;DHT22;3054;51.204;4.430;2022-08-25T11:09:08;44.26;15.97
6052;DHT22;3054;51.204;4.430;2022-08-25T11:11:39;44.01;16.09
6052;DHT22;3054;51.204;4.430;2022-08-25T11:14:11;44.09;15.98
6052;DHT22;3054;51.204;4.430;2022-08-25T11:16:47;43.71;15.93
6052;DHT22;3054;51.204;4.430;2022-08-25T11:19:21;43.44;16.10
6052;DHT22;3054;51.204;4.430;2022-08-25T11:21:58;43.63;16.07
6052;DHT22;3054;51.204;4.430;2022-08-25T11:24:41;44.11;15.90
6052;DHT22;3054;51.204;4.430;2022-08-25T11:27:16;44.91;15.41
6052;DHT22;3054;51.204;4.430;2022-08-25T11:29:53;46.40;15.22
6052;DHT22;3054;51.204;4.430;2022-08-25T11:32:22;48.45;14.24
6052;DHT22;3054;51.204;4.430;2022-08-25T11:34:52;50.81;12.87
6052;DHT22;3054;51.204;4.430;2022-08-25T11:37:23;52.60;11.85
6052;DHT22;3054;51.204;4.430;2022-08-25T11:43:01;55.75;9.89
6052;DHT22;3054;51.204;4.430;2022-08-25T11:48:34;57.92;9.05
6052;DHT22;3054;51.204;4.430;2022-08-25T11:51:06;58.99;8.66
6052;DHT22;3054;51.204;4.430;2022-08-25T11:53:35;59.83;7.94
6052;DHT22;3054;51.204;4.430;2022-08-25T11:56:05;59.81;7.82
6052;DHT22;3054;51.204;4.430;2022-08-25T11:58:47;60.01;7.56
6052;DHT22;3054;51.204;4.430;2022-08-25T12:04:33;54.21;7.37
6052;DHT22;3054;51.204;4.430;2022-08-25T12:07:24;50.84;9.08
6052;DHT22;3054;51.204;4.430;2022-08-25T12:10:14;48.29;10.70
6052;DHT22;3054;51.204;4.430;2022-08-25T12:15:58;45.86;12.36
6052;DHT22;3054;51.204;4.430;2022-08-25T12:18:43;45.05;13.04
6052;DHT22;3054;51.204;4.430;2022-08-25T12:21:14;43.95;13.81
6052;DHT22;3054;51.204;4.430;2022-08-25T12:23:43;43.25;14.47
6052;DHT22;3054;51.204;4.430;2022-08-25T12:26:19;42.70;14.88
6052;DHT22;3054;51.204;4.430;2022-08-25T12:29:00;42.13;15.44
6052;DHT22;3054;51.204;4.430;2022-08-25T12:31:58;41.85;15.80
6052;DHT22;3054;51.204;4.430;2022-08-25T12:34:52;41.56;16.16
6052;DHT22;3054;51.204;4.430;2022-08-25T12:37:22;41.20;16.54
6052;DHT22;3054;51.204;4.430;2022-08-25T12:39:57;40.86;16.99
6052;DHT22;3054;51.204;4.430;2022-08-25T12:42:30;40.54;17.26
6052;DHT22;3054;51.204;4.430;2022-08-25T12:45:12;40.30;17.54
6052;DHT22;3054;51.204;4.430;2022-08-25T12:47:40;40.00;17.78
6052;DHT22;3054;51.204;4.430;2022-08-25T12:50:29;39.76;18.08
6052;DHT22;3054;51.204;4.430;2022-08-25T12:53:08;39.51;18.30
6052;DHT22;3054;51.204;4.430;2022-08-25T12:55:39;39.36;18.53
6052;DHT22;3054;51.204;4.430;2022-08-25T12:58:07;39.19;18.77
6052;DHT22;3054;51.204;4.430;2022-08-25T13:00:47;39.09;19.01
6052;DHT22;3054;51.204;4.430;2022-08-25T13:03:39;38.96;19.55
6052;DHT22;3054;51.204;4.430;2022-08-25T13:06:19;38.83;19.94
6052;DHT22;3054;51.204;4.430;2022-08-25T13:12:01;38.59;20.15
6052;DHT22;3054;51.204;4.430;2022-08-25T13:14:35;38.49;20.05
6052;DHT22;3054;51.204;4.430;2022-08-25T13:17:03;38.48;20.05
6052;DHT22;3054;51.204;4.430;2022-08-25T13:19:30;38.40;20.33
6052;DHT22;3054;51.204;4.430;2022-08-25T13:22:00;38.33;21.44
6052;DHT22;3054;51.204;4.430;2022-08-25T13:24:29;38.14;22.83
6052;DHT22;3054;51.204;4.430;2022-08-25T13:27:00;38.04;24.27
6052;DHT22;3054;51.204;4.430;2022-08-25T13:29:29;37.91;25.32
6052;DHT22;3054;51.204;4.430;2022-08-25T13:31:58;37.75;26.34
6052;DHT22;3054;51.204;4.430;2022-08-25T13:34:27;37.67;27.09
6052;DHT22;3054;51.204;4.430;2022-08-25T13:36:55;37.43;27.91
6052;DHT22;3054;51.204;4.430;2022-08-25T13:39:40;37.22;28.57
6052;DHT22;3054;51.204;4.430;2022-08-25T13:42:13;36.97;29.45
6052;DHT22;3054;51.204;4.430;2022-08-25T13:44:41;36.71;30.18
6052;DHT22;3054;51.204;4.430;2022-08-25T13:47:10;36.54;30.89
6052;DHT22;3054;51.204;4.430;2022-08-25T13:49:40;36.30;31.60
6052;DHT22;3054;51.204;4.430;2022-08-25T13:52:14;36.22;32.19
6052;DHT22;3054;51.204;4.430;2022-08-25T13:54:43;36.15;32.67
6052;DHT22;3054;51.204;4.430;2022-08-25T13:57:21;36.15;33.17
6052;DHT22;3054;51.204;4.430;2022-08-25T13:59:51;36.07;33.47
6052;DHT22;3054;51.204;4.430;2022-08-25T14:02:41;35.99;33.93
6052;DHT22;3054;51.204;4.430;2022-08-25T14:05:08;35.96;34.22
6052;DHT22;3054;51.204;4.430;2022-08-25T14:07:37;35.95;34.57
6052;DHT22;3054;51.204;4.430;2022-08-25T14:10:06;35.90;34.88
6052;DHT22;3054;51.204;4.430;2022-08-25T14:12:38;35.87;35.11
6052;DHT22;3054;51.204;4.430;2022-08-25T14:15:10;35.85;35.08
6052;DHT22;3054;51.204;4.430;2022-08-25T14:17:40;35.83;35.02
6052;DHT22;3054;51.204;4.430;2022-08-25T14:20:17;35.77;35.02
6052;DHT22;3054;51.204;4.430;2022-08-25T14:22:45;35.78;34.96
6052;DHT22;3054;51.204;4.430;2022-08-25T14:25:12;35.80;34.92
6052;DHT22;3054;51.204;4.430;2022-08-25T14:27:42;35.78;35.02
6052;DHT22;3054;51.204;4.430;2022-08-25T14:30:11;35.78;35.11
6052;DHT22;3054;51.204;4.430;2022-08-25T14:32:38;35.77;35.17
6052;DHT22;3054;51.204;4.430;2022-08-25T14:35:06;35.68;35.09
6052;DHT22;3054;51.204;4.430;2022-08-25T14:37:33;35.60;35.08
6052;DHT22;3054;51.204;4.430;2022-08-25T14:40:00;35.50;35.24
6052;DHT22;3054;51.204;4.430;2022-08-25T14:42:27;35.40;35.27
6052;DHT22;3054;51.204;4.430;2022-08-25T14:44:55;35.39;35.16
6052;DHT22;3054;51.204;4.430;2022-08-25T14:47:23;35.31;35.31
6052;DHT22;3054;51.204;4.430;2022-08-25T14:49:49;35.21;35.44
6052;DHT22;3054;51.204;4.430;2022-08-25T14:52:20;35.18;35.35
6052;DHT22;3054;51.204;4.430;2022-08-25T14:54:47;35.10;35.42
6052;DHT22;3054;51.204;4.430;2022-08-25T14:57:14;34.99;35.53
6052;DHT22;3054;51.204;4.430;2022-08-25T14:59:40;34.85;35.78
6052;DHT22;3054;51.204;4.430;2022-08-25T15:02:10;34.69;36.15
6052;DHT22;3054;51.204;4.430;2022-08-25T15:04:38;34.53;36.43
6052;DHT22;3054;51.204;4.430;2022-08-25T15:07:05;34.46;36.66
6052;DHT22;3054;51.204;4.430;2022-08-25T15:09:52;34.35;36.96
6052;DHT22;3054;51.204;4.430;2022-08-25T15:12:18;34.31;37.41
6052;DHT22;3054;51.204;4.430;2022-08-25T15:14:47;34.25;38.01
6052;DHT22;3054;51.204;4.430;2022-08-25T15:17:16;34.19;38.69
6052;DHT22;3054;51.204;4.430;2022-08-25T15:19:43;34.09;39.14
6052;DHT22;3054;51.204;4.430;2022-08-25T15:22:10;33.99;39.72
6052;DHT22;3054;51.204;4.430;2022-08-25T15:24:37;33.90;40.44
6052;DHT22;3054;51.204;4.430;2022-08-25T15:27:04;33.76;41.29
6052;DHT22;3054;51.204;4.430;2022-08-25T15:29:34;33.64;42.00
6052;DHT22;3054;51.204;4.430;2022-08-25T15:32:03;33.59;42.81
6052;DHT22;3054;51.204;4.430;2022-08-25T15:34:33;33.50;43.43
6052;DHT22;3054;51.204;4.430;2022-08-25T15:37:08;33.46;44.03
6052;DHT22;3054;51.204;4.430;2022-08-25T15:39:35;33.35;44.61
6052;DHT22;3054;51.204;4.430;2022-08-25T15:42:03;33.25;45.18
6052;DHT22;3054;51.204;4.430;2022-08-25T15:44:30;33.15;45.66
6052;DHT22;3054;51.204;4.430;2022-08-25T15:46:58;33.02;46.19
6052;DHT22;3054;51.204;4.430;2022-08-25T15:49:28;32.90;46.52
6052;DHT22;3054;51.204;4.430;2022-08-25T15:51:57;32.79;46.88
6052;DHT22;3054;51.204;4.430;2022-08-25T15:54:25;32.70;47.25
6052;DHT22;3054;51.204;4.430;2022-08-25T15:56:52;32.56;47.60
6052;DHT22;3054;51.204;4.430;2022-08-25T15:59:19;32.44;48.05
6052;DHT22;3054;51.204;4.430;2022-08-25T16:01:46;32.37;48.39
6052;DHT22;3054;51.204;4.430;2022-08-25T16:04:13;32.27;48.82
6052;DHT22;3054;51.204;4.430;2022-08-25T16:06:40;32.16;49.29
6052;DHT22;3054;51.204;4.430;2022-08-25T16:09:08;32.05;49.70
6052;DHT22;3054;51.204;4.430;2022-08-25T16:11:35;31.97;49.99
6052;DHT22;3054;51.204;4.430;2022-08-25T16:14:03;31.93;50.27
6052;DHT22;3054;51.204;4.430;2022-08-25T16:16:30;31.83;50.55
6052;DHT22;3054;51.204;4.430;2022-08-25T16:18:57;31.73;50.79
6052;DHT22;3054;51.204;4.430;2022-08-25T16:21:26;31.63;51.09
6052;DHT22;3054;51.204;4.430;2022-08-25T16:23:53;31.59;51.22
6052;DHT22;3054;51.204;4.430;2022-08-25T16:26:23;31.54;51.28
6052;DHT22;3054;51.204;4.430;2022-08-25T16:28:50;31.44;51.43
6052;DHT22;3054;51.204;4.430;2022-08-25T16:31:17;31.40;51.62
6052;DHT22;3054;51.204;4.430;2022-08-25T16:33:44;31.39;51.68
6052;DHT22;3054;51.204;4.430;2022-08-25T16:36:13;31.38;51.80
6052;DHT22;3054;51.204;4.430;2022-08-25T16:38:42;31.28;52.00
6052;DHT22;3054;51.204;4.430;2022-08-25T16:41:11;31.21;52.21